Time;durP1;ratioP1;P1;durP2;ratioP2;P2;SDS_P1;SDS_P2;PMS_P1;PMS_P2;Temp;Humidity;BMP_temperature;BMP_pressure;BME280_temperature;BME280_humidity;BME280_pressure;Samples;Min_cycle;Max_cycle;Signal;HPM_P1;HPM_P2
2022/06/16 00:00:18;;;;;;;4.05;3.08;;;13.30;79.20;;;;;;5031527;27;20552;-72
2022/06/16 00:02:48;;;;;;;4.05;2.40;;;13.30;79.10;;;;;;5024301;27;20087;-72
2022/06/16 00:05:17;;;;;;;4.13;2.88;;;13.30;79.10;;;;;;5038460;27;20116;-72
2022/06/16 00:07:44;;;;;;;6.32;2.67;;;13.20;79.10;;;;;;5035063;27;20481;-72
2022/06/16 00:10:12;;;;;;;6.55;3.42;;;13.20;79.10;;;;;;5028154;27;20080;-72
2022/06/16 00:12:39;;;;;;;9.95;4.70;;;13.20;79.20;;;;;;5032877;27;20041;-72
2022/06/16 00:15:10;;;;;;;11.50;3.67;;;13.30;79.70;;;;;;5031189;27;20109;-72
2022/06/16 00:17:36;;;;;;;5.32;3.25;;;13.20;79.80;;;;;;5030120;27;20022;-73
2022/06/16 00:20:04;;;;;;;6.85;2.95;;;13.20;79.70;;;;;;5035146;27;20035;-72
2022/06/16 00:22:32;;;;;;;4.85;2.63;;;13.20;79.50;;;;;;5026468;27;20105;-71
2022/06/16 00:24:58;;;;;;;12.68;3.70;;;13.20;79.20;;;;;;5035386;27;20413;-72
2022/06/16 00:27:25;;;;;;;5.30;3.13;;;13.20;79.20;;;;;;5044790;27;20106;-72
2022/06/16 00:29:51;;;;;;;11.27;5.88;;;13.20;79.10;;;;;;5041394;27;20024;-71
2022/06/16 00:32:18;;;;;;;6.93;3.08;;;13.20;79.20;;;;;;5026562;27;20037;-71
2022/06/16 00:34:44;;;;;;;4.18;2.97;;;13.20;79.50;;;;;;5020884;27;20079;-72
2022/06/16 00:37:11;;;;;;;7.97;3.30;;;13.20;79.50;;;;;;5044460;27;20549;-72
2022/06/16 00:39:37;;;;;;;4.82;3.45;;;13.20;79.30;;;;;;5032920;27;20045;-72
2022/06/16 00:42:15;;;;;;;6.78;3.13;;;13.10;79.20;;;;;;5027766;27;20034;-71
2022/06/16 00:44:45;;;;;;;18.10;3.03;;;13.10;79.20;;;;;;5025033;27;20038;-71
2022/06/16 00:47:12;;;;;;;6.38;2.70;;;13.10;79.30;;;;;;5034873;27;20088;-72
2022/06/16 00:49:42;;;;;;;13.15;3.42;;;13.10;79.90;;;;;;5022689;27;20413;-72
2022/06/16 00:52:23;;;;;;;7.90;2.53;;;13.20;80.20;;;;;;5031696;27;20125;-72
2022/06/16 00:55:00;;;;;;;8.55;2.28;;;13.20;80.40;;;;;;5034558;27;20037;-72
2022/06/16 00:57:36;;;;;;;5.97;2.22;;;13.10;79.80;;;;;;5034897;27;20035;-72
2022/06/16 01:00:16;;;;;;;5.90;2.33;;;13.10;79.40;;;;;;5038874;27;20029;-72
2022/06/16 01:02:42;;;;;;;5.15;2.60;;;13.10;79.10;;;;;;5036174;27;20402;-72
2022/06/16 01:05:09;;;;;;;11.82;2.83;;;13.10;79.00;;;;;;5028710;27;20018;-72
2022/06/16 01:07:39;;;;;;;8.98;2.05;;;13.10;79.20;;;;;;5040791;27;20038;-72
2022/06/16 01:10:07;;;;;;;4.03;1.80;;;13.10;79.00;;;;;;5032366;27;20480;-72
2022/06/16 01:15:42;;;;;;;7.45;2.58;;;13.10;78.50;;;;;;5017950;27;20044;-71
2022/06/16 01:18:15;;;;;;;5.45;2.00;;;13.10;78.30;;;;;;5023085;27;20059;-72
2022/06/16 01:20:46;;;;;;;4.28;1.60;;;13.10;78.90;;;;;;5032441;27;20426;-72
2022/06/16 01:23:44;;;;;;;4.38;1.80;;;13.10;78.30;;;;;;5035818;27;20034;-71
2022/06/16 01:26:28;;;;;;;2.03;1.40;;;13.10;78.70;;;;;;5021720;27;20480;-71
2022/06/16 01:29:18;;;;;;;5.53;1.33;;;13.00;79.00;;;;;;5041284;27;20044;-72
2022/06/16 01:32:05;;;;;;;3.45;1.90;;;13.00;79.40;;;;;;5023414;27;20038;-72
2022/06/16 01:34:45;;;;;;;5.28;1.70;;;13.00;79.40;;;;;;5037525;27;20040;-72
2022/06/16 01:37:48;;;;;;;8.77;1.95;;;13.00;78.90;;;;;;5106783;27;20028;-72
2022/06/16 01:40:33;;;;;;;11.18;2.08;;;12.90;79.20;;;;;;5021608;27;20030;-72
2022/06/16 01:43:08;;;;;;;6.15;1.60;;;12.90;79.00;;;;;;5027314;27;20034;-72
2022/06/16 01:45:43;;;;;;;11.85;1.55;;;12.90;78.90;;;;;;5025337;27;20041;-72
2022/06/16 01:48:12;;;;;;;7.63;1.50;;;12.90;79.10;;;;;;5019519;27;20037;-72
2022/06/16 01:51:00;;;;;;;4.15;1.10;;;12.90;79.10;;;;;;5041274;27;20501;-72
2022/06/16 01:53:47;;;;;;;2.17;1.00;;;12.90;78.60;;;;;;5018791;27;20055;-72
2022/06/16 01:56:43;;;;;;;1.67;1.23;;;12.80;78.10;;;;;;5042977;27;20496;-71
2022/06/16 01:59:15;;;;;;;2.13;0.73;;;12.90;77.80;;;;;;5026448;27;20103;-72
2022/06/16 02:01:45;;;;;;;1.52;0.57;;;12.90;77.60;;;;;;5028932;27;20051;-72
2022/06/16 02:04:18;;;;;;;3.00;1.08;;;12.80;77.40;;;;;;5027017;27;20487;-72
2022/06/16 02:06:50;;;;;;;2.40;0.93;;;12.80;77.20;;;;;;5028707;27;20408;-72
2022/06/16 02:09:25;;;;;;;2.03;1.10;;;12.80;77.30;;;;;;5029648;27;20540;-72
2022/06/16 02:11:55;;;;;;;9.18;1.25;;;12.80;77.20;;;;;;5033576;27;20042;-72
2022/06/16 02:14:34;;;;;;;2.85;1.00;;;12.80;77.30;;;;;;5038518;27;20642;-72
2022/06/16 02:17:02;;;;;;;3.67;1.10;;;12.80;77.40;;;;;;5031343;27;20042;-71
2022/06/16 02:19:31;;;;;;;2.17;0.85;;;12.80;77.60;;;;;;5028505;27;20018;-71
2022/06/16 02:21:58;;;;;;;1.92;0.50;;;12.80;77.60;;;;;;5024802;27;20026;-72
2022/06/16 02:24:27;;;;;;;3.97;0.70;;;12.80;77.60;;;;;;5037987;27;20150;-71
2022/06/16 02:26:56;;;;;;;2.20;0.60;;;12.80;77.40;;;;;;5025482;27;20018;-72
2022/06/16 02:29:37;;;;;;;1.65;0.55;;;12.80;77.30;;;;;;5040517;27;20040;-71
2022/06/16 02:32:25;;;;;;;1.33;0.52;;;12.70;77.30;;;;;;5025316;27;20039;-72
2022/06/16 02:35:37;;;;;;;1.00;0.75;;;12.70;77.40;;;;;;5018365;27;20038;-72
2022/06/16 02:38:50;;;;;;;1.33;0.82;;;12.80;77.30;;;;;;5034705;28;20033;-72
2022/06/16 02:42:09;;;;;;;1.10;0.73;;;12.70;77.30;;;;;;5033913;28;20098;-72
2022/06/16 02:44:44;;;;;;;1.52;1.10;;;12.70;77.40;;;;;;5031762;28;20103;-71
2022/06/16 02:47:15;;;;;;;1.80;0.50;;;12.70;77.50;;;;;;5028628;28;20046;-71
2022/06/16 02:49:51;;;;;;;1.95;0.90;;;12.70;77.60;;;;;;5027105;28;20097;-71
2022/06/16 02:52:29;;;;;;;8.25;1.25;;;12.70;77.70;;;;;;5029475;27;20504;-72
2022/06/16 02:55:16;;;;;;;2.90;1.17;;;12.70;78.00;;;;;;5031851;27;20030;-71
2022/06/16 02:57:49;;;;;;;5.18;0.80;;;12.60;77.90;;;;;;5034793;28;20061;-72
2022/06/16 03:00:20;;;;;;;2.30;0.85;;;12.60;78.10;;;;;;5027735;28;20062;-71
2022/06/16 03:02:46;;;;;;;3.70;1.10;;;12.60;78.10;;;;;;5079858;28;20485;-71
2022/06/16 03:05:15;;;;;;;16.35;2.25;;;12.60;78.10;;;;;;5029642;28;20021;-71
2022/06/16 03:07:43;;;;;;;3.58;1.02;;;12.60;78.80;;;;;;5032772;28;20069;-71
2022/06/16 03:10:13;;;;;;;3.53;1.45;;;12.60;79.30;;;;;;5041013;28;20055;-71
2022/06/16 03:12:40;;;;;;;6.60;0.98;;;12.60;78.80;;;;;;5020464;28;20074;-71
2022/06/16 03:15:08;;;;;;;8.63;1.25;;;12.60;78.10;;;;;;5022273;28;20511;-72
2022/06/16 03:17:35;;;;;;;10.80;1.08;;;12.50;77.40;;;;;;5033853;28;20515;-72
2022/06/16 03:20:02;;;;;;;12.60;1.20;;;12.50;77.50;;;;;;5026587;28;20035;-71
2022/06/16 03:22:28;;;;;;;4.65;2.60;;;12.50;77.90;;;;;;5021890;28;20037;-71
2022/06/16 03:24:54;;;;;;;2.38;0.90;;;12.50;77.70;;;;;;5036306;27;20030;-71
2022/06/16 03:27:21;;;;;;;2.53;0.80;;;12.40;77.00;;;;;;5023541;27;20034;-72
2022/06/16 03:29:47;;;;;;;6.82;2.38;;;12.40;76.60;;;;;;5025950;27;20026;-71
2022/06/16 03:32:14;;;;;;;1.52;1.05;;;12.40;76.50;;;;;;5032226;27;20492;-72
2022/06/16 03:34:40;;;;;;;5.18;1.17;;;12.40;76.60;;;;;;5017803;27;20489;-71
2022/06/16 03:37:08;;;;;;;4.07;1.75;;;12.40;76.80;;;;;;5033355;27;20037;-71
2022/06/16 03:39:34;;;;;;;4.70;1.48;;;12.40;77.20;;;;;;5039204;27;20511;-71
2022/06/16 03:42:01;;;;;;;1.70;0.90;;;12.40;77.10;;;;;;5040815;27;20037;-72
2022/06/16 03:44:28;;;;;;;4.65;1.58;;;12.30;76.80;;;;;;5020447;27;20110;-72
2022/06/16 03:46:55;;;;;;;5.43;1.48;;;12.30;76.70;;;;;;5044255;27;20481;-73
2022/06/16 03:49:21;;;;;;;2.50;1.23;;;12.30;76.50;;;;;;5025816;27;20075;-71
2022/06/16 03:51:48;;;;;;;1.08;0.73;;;12.30;76.60;;;;;;5018978;27;20034;-72
2022/06/16 03:54:14;;;;;;;3.83;1.38;;;12.30;76.50;;;;;;5040316;27;20034;-72
2022/06/16 03:56:42;;;;;;;3.17;1.00;;;12.30;76.40;;;;;;5019883;27;20041;-72
2022/06/16 03:59:09;;;;;;;3.10;0.93;;;12.20;76.20;;;;;;5029377;27;20476;-72
2022/06/16 04:01:35;;;;;;;4.25;2.42;;;12.20;76.10;;;;;;5037553;27;20028;-71
2022/06/16 04:04:02;;;;;;;26.20;17.30;;;12.20;76.10;;;;;;5032191;27;20472;-72
2022/06/16 04:06:31;;;;;;;40.17;23.95;;;12.20;76.30;;;;;;5027760;27;20501;-71
2022/06/16 04:08:57;;;;;;;19.05;13.57;;;12.20;76.30;;;;;;5032286;27;20025;-71
2022/06/16 04:11:27;;;;;;;22.63;5.57;;;12.20;76.40;;;;;;5022515;27;20092;-71
2022/06/16 04:13:57;;;;;;;3.65;3.10;;;12.20;76.20;;;;;;5093536;27;20047;-70
2022/06/16 04:16:24;;;;;;;4.22;2.45;;;12.20;76.30;;;;;;5099100;27;20940;-71
2022/06/16 04:18:50;;;;;;;2.75;1.48;;;12.20;76.20;;;;;;5023938;27;20044;-72
2022/06/16 04:21:17;;;;;;;2.95;1.50;;;12.20;76.10;;;;;;5025233;27;20041;-71
2022/06/16 04:23:44;;;;;;;3.55;1.30;;;12.20;76.10;;;;;;5023047;27;20433;-71
2022/06/16 04:26:10;;;;;;;2.67;1.40;;;12.20;76.20;;;;;;5035300;27;20054;-72
2022/06/16 04:28:37;;;;;;;4.40;0.98;;;12.20;76.00;;;;;;5024916;27;20040;-71
2022/06/16 04:31:03;;;;;;;3.40;1.00;;;12.20;76.10;;;;;;5024753;27;20122;-71
2022/06/16 04:33:30;;;;;;;5.10;2.10;;;12.20;76.00;;;;;;5022638;27;20020;-71
2022/06/16 04:35:57;;;;;;;1.95;1.20;;;12.20;76.10;;;;;;5121583;27;20411;-71
2022/06/16 04:38:26;;;;;;;2.92;1.23;;;12.20;76.30;;;;;;5027443;27;20049;-72
2022/06/16 04:40:53;;;;;;;6.22;2.40;;;12.20;76.50;;;;;;5030825;27;20034;-72
2022/06/16 04:43:19;;;;;;;2.63;1.05;;;12.20;76.70;;;;;;5027658;27;20030;-72
2022/06/16 04:45:46;;;;;;;15.02;1.70;;;12.20;76.60;;;;;;5029127;27;20022;-71
2022/06/16 04:48:12;;;;;;;7.40;2.20;;;12.20;76.30;;;;;;5039516;27;20397;-71
2022/06/16 04:50:39;;;;;;;12.40;7.30;;;12.10;77.10;;;;;;5028192;27;20028;-71
2022/06/16 04:53:06;;;;;;;9.73;7.85;;;12.10;77.80;;;;;;5032811;27;20041;-72
2022/06/16 04:55:32;;;;;;;11.20;7.28;;;12.10;77.90;;;;;;5030887;27;20066;-73
2022/06/16 04:57:59;;;;;;;7.45;4.38;;;12.10;77.50;;;;;;5038772;27;20096;-71
2022/06/16 05:00:25;;;;;;;4.50;3.10;;;12.10;77.40;;;;;;5030984;27;20061;-71
2022/06/16 05:02:52;;;;;;;3.20;2.38;;;12.10;77.00;;;;;;5022667;27;20122;-72
2022/06/16 05:05:18;;;;;;;4.78;2.55;;;12.10;76.70;;;;;;5044383;27;20030;-71
2022/06/16 05:07:45;;;;;;;3.75;2.38;;;12.10;76.50;;;;;;5082112;28;20048;-71
2022/06/16 05:10:12;;;;;;;6.80;4.07;;;12.10;76.50;;;;;;5035883;27;20033;-71
2022/06/16 05:12:39;;;;;;;3.85;3.42;;;12.10;76.60;;;;;;5021711;27;20046;-72
2022/06/16 05:15:06;;;;;;;4.60;2.65;;;12.00;76.60;;;;;;5051101;27;20039;-72
2022/06/16 05:17:33;;;;;;;6.88;3.65;;;12.10;76.80;;;;;;5020653;27;20040;-72
2022/06/16 05:20:00;;;;;;;5.07;3.17;;;12.00;76.70;;;;;;5027649;27;20083;-71
2022/06/16 05:22:27;;;;;;;7.25;3.50;;;12.10;76.70;;;;;;5032968;27;20386;-72
2022/06/16 05:24:53;;;;;;;5.10;3.15;;;12.00;76.70;;;;;;5025394;27;20034;-71
2022/06/16 05:27:20;;;;;;;4.93;3.30;;;12.00;76.70;;;;;;5035546;27;20050;-71
2022/06/16 05:29:46;;;;;;;3.75;2.95;;;12.00;76.70;;;;;;5033136;27;20409;-71
2022/06/16 05:32:13;;;;;;;4.18;2.90;;;12.00;76.70;;;;;;5039260;27;20851;-71
2022/06/16 05:34:39;;;;;;;3.95;3.17;;;12.00;76.70;;;;;;5017318;27;20030;-72
2022/06/16 05:37:06;;;;;;;5.32;3.85;;;12.00;76.80;;;;;;5048536;27;20034;-72
2022/06/16 05:39:33;;;;;;;4.43;3.10;;;12.00;76.70;;;;;;5024636;27;20658;-72
2022/06/16 05:41:59;;;;;;;7.05;3.25;;;11.90;76.70;;;;;;5028289;27;20026;-71
2022/06/16 05:44:26;;;;;;;5.50;4.13;;;11.90;76.70;;;;;;5037868;27;20435;-72
2022/06/16 05:46:53;;;;;;;5.10;3.58;;;11.90;76.70;;;;;;5019426;27;20442;-72
2022/06/16 05:49:21;;;;;;;4.72;3.38;;;12.00;76.70;;;;;;5018453;27;20041;-71
2022/06/16 05:51:48;;;;;;;6.18;3.80;;;11.90;76.50;;;;;;5035609;27;20136;-71
2022/06/16 05:54:15;;;;;;;5.05;3.00;;;11.90;76.50;;;;;;5022229;27;20443;-73
2022/06/16 05:56:41;;;;;;;3.63;2.90;;;11.80;76.20;;;;;;5022350;27;20124;-71
2022/06/16 05:59:08;;;;;;;8.10;3.35;;;11.80;76.30;;;;;;5025710;27;20026;-71
2022/06/16 06:01:34;;;;;;;7.72;4.10;;;11.80;75.80;;;;;;5022263;27;20454;-70
2022/06/16 06:04:01;;;;;;;10.18;5.05;;;11.70;75.30;;;;;;5087961;28;20070;-71
2022/06/16 06:06:27;;;;;;;6.30;4.97;;;11.60;76.90;;;;;;5027355;27;20033;-73
2022/06/16 06:17:18;;;;;;;13.65;8.07;;;11.60;79.50;;;;;;5020313;27;20118;-74
2022/06/16 06:19:45;;;;;;;11.88;6.63;;;11.70;79.90;;;;;;5022931;27;20503;-72
2022/06/16 06:22:15;;;;;;;7.78;5.18;;;11.70;79.40;;;;;;5019867;27;20113;-71
2022/06/16 06:24:44;;;;;;;13.48;6.65;;;11.70;79.00;;;;;;5020993;28;20444;-73
2022/06/16 06:27:11;;;;;;;6.20;5.25;;;11.70;78.90;;;;;;5018787;28;20674;-71
2022/06/16 06:29:37;;;;;;;8.32;5.63;;;11.70;78.80;;;;;;5018424;27;20021;-72
2022/06/16 06:32:04;;;;;;;8.30;5.00;;;11.70;78.80;;;;;;5026451;27;20049;-73
2022/06/16 06:34:31;;;;;;;6.05;4.60;;;11.70;78.80;;;;;;5024549;27;20033;-74
2022/06/16 06:36:58;;;;;;;12.57;6.18;;;11.70;78.70;;;;;;5035767;27;20390;-73
2022/06/16 06:39:38;;;;;;;10.23;6.43;;;11.70;78.60;;;;;;5023741;27;20066;-73
2022/06/16 06:42:04;;;;;;;8.30;5.80;;;11.70;78.60;;;;;;5024864;27;20027;-72
2022/06/16 06:44:32;;;;;;;10.40;7.15;;;11.70;78.60;;;;;;5026395;27;20041;-72
2022/06/16 06:46:59;;;;;;;14.48;7.65;;;11.70;78.60;;;;;;5029574;27;20100;-74
2022/06/16 06:50:05;;;;;;;11.98;8.05;;;11.70;78.50;;;;;;5082839;28;20376;-72
2022/06/16 06:52:52;;;;;;;17.83;8.60;;;11.70;78.60;;;;;;5017764;27;20509;-72
2022/06/16 06:55:20;;;;;;;40.83;10.73;;;11.70;78.80;;;;;;5039438;27;20021;-72
2022/06/16 06:57:48;;;;;;;28.38;8.95;;;11.70;80.20;;;;;;5029331;27;20480;-72
2022/06/16 07:00:54;;;;;;;26.42;14.75;;;11.70;80.20;;;;;;5028847;27;20463;-74
2022/06/16 07:03:21;;;;;;;20.50;14.55;;;11.70;80.30;;;;;;5033916;28;20400;-72
2022/06/16 07:06:28;;;;;;;19.38;11.07;;;11.80;80.30;;;;;;5087200;28;20050;-72
2022/06/16 07:08:54;;;;;;;29.88;10.68;;;11.80;81.10;;;;;;5036509;28;20581;-73
2022/06/16 07:11:21;;;;;;;13.98;10.77;;;11.80;81.60;;;;;;5038212;28;20050;-72
2022/06/16 07:14:26;;;;;;;15.98;11.32;;;11.80;81.90;;;;;;5017840;28;20978;-71
2022/06/16 07:16:53;;;;;;;18.40;11.50;;;11.80;82.30;;;;;;5084271;28;20045;-71
2022/06/16 07:19:20;;;;;;;19.33;13.30;;;11.90;82.50;;;;;;5389615;22;20043;-72
2022/06/16 07:21:46;;;;;;;18.42;11.13;;;11.90;82.60;;;;;;5086654;28;20388;-71
2022/06/16 07:24:13;;;;;;;20.63;10.85;;;12.00;82.50;;;;;;5093145;28;20043;-72
2022/06/16 07:26:39;;;;;;;19.17;11.93;;;12.00;82.30;;;;;;5098302;28;20041;-73
2022/06/16 07:29:06;;;;;;;18.83;11.68;;;12.00;82.30;;;;;;5101012;28;20024;-76
2022/06/16 07:31:32;;;;;;;20.95;13.95;;;12.00;82.50;;;;;;5093522;28;20036;-78
2022/06/16 07:33:59;;;;;;;33.55;15.43;;;12.10;82.60;;;;;;5101887;28;20035;-75
2022/06/16 07:36:25;;;;;;;32.92;14.80;;;12.20;82.70;;;;;;5100276;28;20379;-75
2022/06/16 07:38:52;;;;;;;18.67;11.15;;;12.10;82.70;;;;;;5095289;28;20030;-77
2022/06/16 07:41:36;;;;;;;17.13;11.15;;;12.20;82.80;;;;;;5101495;28;20043;-74
2022/06/16 07:44:09;;;;;;;20.23;12.07;;;12.20;82.70;;;;;;5095798;28;20078;-77
2022/06/16 07:46:36;;;;;;;16.38;10.45;;;12.30;82.70;;;;;;5102311;28;20032;-75
2022/06/16 07:49:05;;;;;;;16.92;10.63;;;12.30;82.70;;;;;;5093789;28;20029;-75
2022/06/16 07:51:31;;;;;;;15.25;9.95;;;12.40;82.70;;;;;;5097671;28;20035;-71
2022/06/16 07:53:58;;;;;;;14.15;10.02;;;12.40;82.60;;;;;;5105241;28;20028;-77
2022/06/16 07:56:25;;;;;;;11.90;9.27;;;12.40;82.50;;;;;;5096401;28;20028;-70
2022/06/16 07:58:51;;;;;;;11.90;9.32;;;12.50;82.50;;;;;;5098976;28;20035;-75
2022/06/16 08:01:18;;;;;;;12.13;8.88;;;12.50;83.00;;;;;;5102274;28;20039;-76
2022/06/16 08:03:44;;;;;;;13.30;8.40;;;12.50;82.20;;;;;;5096044;28;20027;-74
2022/06/16 08:06:15;;;;;;;13.63;8.80;;;12.60;82.20;;;;;;5099863;28;20077;-71
2022/06/16 08:08:43;;;;;;;16.85;8.88;;;12.60;82.20;;;;;;5096937;28;20410;-69
2022/06/16 08:12:03;;;;;;;10.00;8.43;;;12.60;82.20;;;;;;5094988;28;20433;-78
2022/06/16 08:13:59;;;;;;;12.88;8.57;;;12.60;82.10;;;;;;5101180;28;20040;-78
2022/06/16 08:16:29;;;;;;;10.30;8.25;;;12.60;82.20;;;;;;5104845;28;20067;-75
2022/06/16 08:18:55;;;;;;;12.90;8.20;;;12.70;82.20;;;;;;5101736;28;20032;-75
2022/06/16 08:21:22;;;;;;;12.27;8.57;;;12.70;82.10;;;;;;5104147;28;20034;-78
2022/06/16 08:23:48;;;;;;;9.02;7.43;;;12.70;82.00;;;;;;5101422;28;20028;-73
2022/06/16 08:26:15;;;;;;;14.93;8.98;;;12.70;82.00;;;;;;5101044;28;20038;-76
2022/06/16 08:28:42;;;;;;;10.40;8.18;;;12.80;82.00;;;;;;5098434;28;20028;-72
2022/06/16 08:31:09;;;;;;;18.33;8.13;;;12.90;82.10;;;;;;5104759;28;20096;-74
2022/06/16 08:33:36;;;;;;;15.63;8.68;;;12.80;82.10;;;;;;5107289;28;20141;-75
2022/06/16 08:36:03;;;;;;;14.90;9.98;;;12.90;82.30;;;;;;5094479;28;20040;-78
2022/06/16 08:38:29;;;;;;;19.80;14.85;;;13.00;82.40;;;;;;5102090;28;20024;-80
2022/06/16 08:41:23;;;;;;;41.63;18.73;;;13.00;82.60;;;;;;5100527;28;20032;-75
2022/06/16 08:44:10;;;;;;;38.58;19.77;;;13.00;83.00;;;;;;5093700;28;20036;-74
2022/06/16 08:46:45;;;;;;;42.25;16.67;;;13.10;83.50;;;;;;5100009;28;20036;-83
2022/06/16 08:49:46;;;;;;;;;;;13.10;84.10;;;;;;5103983;28;20123;-72
2022/06/16 08:52:34;;;;;;;15.73;9.32;;;13.20;84.20;;;;;;5021068;28;19931;-74
2022/06/16 08:55:07;;;;;;;12.18;8.23;;;13.30;83.50;;;;;;5096658;28;20115;-72
2022/06/16 08:57:43;;;;;;;13.25;6.88;;;13.30;80.90;;;;;;5102987;28;20023;-73
2022/06/16 09:00:16;;;;;;;14.77;7.15;;;13.40;80.20;;;;;;5097705;28;20412;-73
2022/06/16 09:02:58;;;;;;;13.07;7.72;;;13.50;78.70;;;;;;5096593;28;20490;-72
2022/06/16 09:05:52;;;;;;;17.80;7.57;;;13.60;79.70;;;;;;5096021;28;20043;-71
2022/06/16 09:08:31;;;;;;;13.63;6.47;;;13.70;81.20;;;;;;5098864;28;20051;-74
2022/06/16 09:11:06;;;;;;;401.85;354.65;;;13.80;79.70;;;;;;5100728;28;20032;-72
2022/06/16 09:13:52;;;;;;;103.78;76.13;;;13.90;79.20;;;;;;5096959;28;20085;-72
2022/06/16 09:16:45;;;;;;;99.32;78.55;;;14.10;78.00;;;;;;5103034;28;20039;-73
2022/06/16 09:19:27;;;;;;;51.92;41.53;;;14.20;77.10;;;;;;5099159;28;20131;-74
2022/06/16 09:22:27;;;;;;;32.75;24.42;;;14.30;76.60;;;;;;5099445;28;20364;-73
2022/06/16 09:25:28;;;;;;;21.08;17.42;;;14.30;75.50;;;;;;5095840;28;20036;-75
2022/06/16 09:28:02;;;;;;;16.92;14.05;;;14.30;74.00;;;;;;5095890;28;20035;-76
2022/06/16 09:30:34;;;;;;;38.45;30.27;;;14.20;73.00;;;;;;5097180;28;20032;-76
2022/06/16 09:33:17;;;;;;;27.65;22.40;;;14.30;72.80;;;;;;5093753;28;20098;-74
2022/06/16 09:35:53;;;;;;;13.82;11.95;;;14.30;72.40;;;;;;5096423;28;20464;-72
2022/06/16 09:38:43;;;;;;;9.45;7.97;;;14.40;71.40;;;;;;5097959;28;20032;-75
2022/06/16 09:43:59;;;;;;;4.15;3.45;;;14.40;70.30;;;;;;5080667;28;20643;-74
2022/06/16 09:46:32;;;;;;;3.75;2.50;;;14.40;68.90;;;;;;5095499;28;20032;-71
2022/06/16 09:49:14;;;;;;;2.15;1.55;;;14.50;69.10;;;;;;5099711;28;20037;-78
2022/06/16 09:51:54;;;;;;;1.92;1.45;;;14.50;69.10;;;;;;5097850;28;20047;-74
2022/06/16 09:54:36;;;;;;;1.83;1.17;;;14.60;69.00;;;;;;5097896;28;20369;-72
2022/06/16 09:57:29;;;;;;;3.13;1.38;;;14.60;68.60;;;;;;5097354;28;20110;-68
2022/06/16 10:00:12;;;;;;;1.88;1.20;;;14.70;68.20;;;;;;5095189;28;20050;-75
2022/06/16 10:02:48;;;;;;;2.70;1.20;;;14.80;68.10;;;;;;5100699;28;20031;-69
2022/06/16 10:05:20;;;;;;;2.97;1.33;;;14.80;67.50;;;;;;5099629;28;20118;-73
2022/06/16 10:08:00;;;;;;;3.10;1.67;;;14.90;67.30;;;;;;5098975;28;20506;-76
2022/06/16 10:11:16;;;;;;;3.17;1.30;;;14.90;66.50;;;;;;5097944;28;20074;-73
2022/06/16 10:13:54;;;;;;;7.70;7.10;;;15.00;66.20;;;;;;5100940;28;20043;-75
2022/06/16 10:16:29;;;;;;;9.98;3.78;;;15.00;65.10;;;;;;5098956;28;20031;-74
2022/06/16 10:18:56;;;;;;;2.17;1.98;;;15.00;63.90;;;;;;5094161;28;20080;-73
2022/06/16 10:21:22;;;;;;;1.52;1.42;;;15.10;63.70;;;;;;5095233;28;20518;-74
2022/06/16 10:23:57;;;;;;;1.88;1.02;;;15.10;63.20;;;;;;5098643;28;20483;-77
2022/06/16 10:26:23;;;;;;;2.90;1.20;;;15.10;63.30;;;;;;5100559;28;20039;-73
2022/06/16 10:29:07;;;;;;;1.38;1.20;;;15.20;63.40;;;;;;5096494;28;20931;-74
2022/06/16 10:31:43;;;;;;;4.97;1.05;;;15.20;63.20;;;;;;5100740;28;20044;-76
2022/06/16 10:34:34;;;;;;;2.58;1.30;;;15.30;63.10;;;;;;5093786;28;20032;-78
2022/06/16 10:37:33;;;;;;;1.67;1.40;;;15.30;62.60;;;;;;5094642;28;20609;-75
2022/06/16 10:40:17;;;;;;;15.90;9.50;;;15.40;62.50;;;;;;5057836;28;20501;-78
2022/06/16 10:42:47;;;;;;;16.45;7.50;;;15.50;62.30;;;;;;5092469;28;20044;-73
2022/06/16 10:45:22;;;;;;;4.80;3.30;;;15.60;61.80;;;;;;5090232;28;20433;-79
2022/06/16 10:48:02;;;;;;;2.92;1.83;;;15.70;61.30;;;;;;5092850;28;20093;-73
2022/06/16 10:50:48;;;;;;;2.05;1.13;;;15.70;60.40;;;;;;5092958;28;20028;-73
2022/06/16 10:53:21;;;;;;;1.17;1.08;;;15.70;60.10;;;;;;5089709;28;20044;-73
2022/06/16 10:55:49;;;;;;;0.88;0.60;;;15.80;60.30;;;;;;5096822;28;20031;-77
2022/06/16 10:58:23;;;;;;;2.20;0.75;;;15.90;59.80;;;;;;5074043;28;20032;-76
2022/06/16 11:01:17;;;;;;;0.88;0.50;;;15.90;59.70;;;;;;5092830;28;20402;-73
2022/06/16 11:03:50;;;;;;;0.88;0.77;;;15.90;59.60;;;;;;5092659;28;20047;-75
2022/06/16 11:06:23;;;;;;;1.10;0.93;;;15.90;59.40;;;;;;5090435;28;20031;-72
2022/06/16 11:09:29;;;;;;;2.17;1.80;;;16.00;59.00;;;;;;5096294;28;20032;-70
2022/06/16 11:12:03;;;;;;;3.80;1.58;;;16.00;59.10;;;;;;5097160;28;20048;-72
2022/06/16 11:14:42;;;;;;;2.58;1.83;;;16.10;59.00;;;;;;5098048;28;20036;-77
2022/06/16 11:17:17;;;;;;;3.60;1.15;;;16.10;59.50;;;;;;5091460;28;20486;-74
2022/06/16 11:19:50;;;;;;;4.40;0.60;;;16.10;58.60;;;;;;5097573;28;20501;-72
2022/06/16 11:22:31;;;;;;;1.70;0.68;;;16.20;58.20;;;;;;5096156;28;20498;-76
2022/06/16 11:25:05;;;;;;;4.10;0.52;;;16.20;57.90;;;;;;5096424;28;20486;-72
2022/06/16 11:27:45;;;;;;;0.68;0.50;;;16.30;58.00;;;;;;5095155;28;20381;-73
2022/06/16 11:30:33;;;;;;;1.73;0.57;;;16.30;57.60;;;;;;5104852;28;20032;-78
2022/06/16 11:33:00;;;;;;;2.47;0.70;;;16.40;57.50;;;;;;5093725;28;20550;-75
2022/06/16 11:35:50;;;;;;;4.25;3.28;;;16.50;57.10;;;;;;5101078;28;20398;-73
2022/06/16 11:38:26;;;;;;;4.03;2.78;;;16.60;56.30;;;;;;5092121;28;20393;-70
2022/06/16 11:41:01;;;;;;;1.95;1.45;;;16.60;56.00;;;;;;5096346;28;20036;-79
2022/06/16 11:44:09;;;;;;;1.00;0.90;;;16.70;55.60;;;;;;5099758;28;20028;-75
2022/06/16 11:46:38;;;;;;;1.48;0.60;;;16.70;55.60;;;;;;5096447;28;20498;-77
2022/06/16 11:49:19;;;;;;;2.70;1.42;;;16.70;56.20;;;;;;5096382;28;20566;-69
2022/06/16 11:51:59;;;;;;;1.90;0.50;;;16.80;56.50;;;;;;5105216;28;20047;-71
2022/06/16 11:54:50;;;;;;;2.33;1.50;;;16.80;56.00;;;;;;5103061;28;20074;-74
2022/06/16 11:57:41;;;;;;;1.38;0.63;;;16.80;54.70;;;;;;5100203;28;20031;-73
2022/06/16 12:01:08;;;;;;;1.20;0.80;;;16.70;53.60;;;;;;5096263;28;20102;-77
2022/06/16 12:04:16;;;;;;;1.70;0.68;;;16.70;53.80;;;;;;5095470;28;20505;-78
2022/06/16 12:07:01;;;;;;;6.07;1.33;;;16.70;53.40;;;;;;5098530;28;20066;-79
2022/06/16 12:09:51;;;;;;;5.85;1.48;;;16.70;52.60;;;;;;5100811;28;20036;-74
2022/06/16 12:12:25;;;;;;;32.97;2.97;;;16.70;53.10;;;;;;5095501;28;20048;-78
2022/06/16 12:15:15;;;;;;;4.43;1.02;;;16.70;52.90;;;;;;5099201;27;20043;-70
2022/06/16 12:18:07;;;;;;;25.27;2.97;;;16.60;51.90;;;;;;5101677;28;20512;-77
2022/06/16 12:21:03;;;;;;;19.52;2.60;;;16.60;53.30;;;;;;5099870;28;20044;-74
2022/06/16 12:23:46;;;;;;;23.00;3.40;;;16.60;53.70;;;;;;5100003;28;20027;-71
2022/06/16 12:26:33;;;;;;;16.55;2.13;;;16.60;54.40;;;;;;5101383;28;20138;-75
2022/06/16 12:29:05;;;;;;;14.50;1.58;;;16.60;55.00;;;;;;5100130;28;20036;-74
2022/06/16 12:31:37;;;;;;;2.97;1.13;;;16.50;55.30;;;;;;5102207;28;20127;-78
2022/06/16 12:34:36;;;;;;;144.60;108.13;;;16.50;55.30;;;;;;5097735;28;20032;-79
2022/06/16 12:37:11;;;;;;;73.93;54.20;;;16.50;55.80;;;;;;5091431;28;20043;-79
2022/06/16 12:39:40;;;;;;;;;;;16.50;56.60;;;;;;5097468;28;20035;-71
2022/06/16 12:42:25;;;;;;;27.33;20.38;;;16.50;56.90;;;;;;5093717;27;19908;-73
2022/06/16 12:45:02;;;;;;;17.70;11.93;;;16.50;57.10;;;;;;5085102;28;20040;-72
2022/06/16 12:47:35;;;;;;;8.63;6.43;;;16.50;56.80;;;;;;5096395;27;20020;-75
2022/06/16 12:50:08;;;;;;;7.03;3.53;;;16.50;57.30;;;;;;5099052;27;20380;-73
2022/06/16 12:52:43;;;;;;;14.60;3.50;;;16.50;56.70;;;;;;5079794;28;20137;-75
2022/06/16 12:55:12;;;;;;;3.80;2.20;;;16.50;57.20;;;;;;5096243;28;20378;-79
2022/06/16 12:57:45;;;;;;;11.48;2.85;;;16.50;57.70;;;;;;5099363;27;20050;-72
2022/06/16 13:00:23;;;;;;;3.25;1.60;;;16.50;58.00;;;;;;5102692;27;20061;-79
2022/06/16 13:03:35;;;;;;;3.13;1.42;;;16.50;57.50;;;;;;5101226;27;20580;-74
2022/06/16 13:06:03;;;;;;;5.32;1.85;;;16.50;58.10;;;;;;5091266;27;20178;-77
2022/06/16 13:08:34;;;;;;;3.22;1.40;;;16.50;57.80;;;;;;5080068;28;20024;-81
2022/06/16 13:11:06;;;;;;;2.42;2.15;;;16.50;58.00;;;;;;5099031;28;20395;-75
2022/06/16 13:13:41;;;;;;;2.92;1.33;;;16.50;57.40;;;;;;5103075;27;20023;-78
2022/06/16 13:16:09;;;;;;;15.65;1.85;;;16.50;57.10;;;;;;5094649;27;20032;-80
2022/06/16 13:18:50;;;;;;;4.18;1.40;;;16.50;56.90;;;;;;5098475;27;20054;-83
2022/06/16 13:21:29;;;;;;;2.00;0.98;;;16.50;56.60;;;;;;5097371;27;20118;-77
2022/06/16 13:24:33;;;;;;;2.55;0.98;;;16.50;56.80;;;;;;5100020;28;20600;-79
2022/06/16 13:27:13;;;;;;;2.03;0.98;;;16.50;56.90;;;;;;5099243;27;20039;-75
2022/06/16 13:29:50;;;;;;;1.23;0.68;;;16.60;57.60;;;;;;5098105;28;20118;-76
2022/06/16 13:32:40;;;;;;;2.35;0.95;;;16.50;57.80;;;;;;5102024;28;20110;-73
2022/06/16 13:35:13;;;;;;;2.55;0.88;;;16.50;57.80;;;;;;5097895;27;20049;-75